sensor_id;sensor_type;location;lat;lon;timestamp;P1;durP1;ratioP1;P2;durP2;ratioP2
1054;SDS011;516;51.482;7.120;2023-05-01T00:04:51;11.77;;;10.73;;
1054;SDS011;516;51.482;7.120;2023-05-01T00:10:39;15.00;;;11.67;;
1054;SDS011;516;51.482;7.120;2023-05-01T00:16:27;13.50;;;12.20;;
1054;SDS011;516;51.482;7.120;2023-05-01T00:22:15;14.57;;;12.80;;
1054;SDS011;516;51.482;7.120;2023-05-01T00:28:03;12.30;;;11.10;;
1054;SDS011;516;51.482;7.120;2023-05-01T00:33:52;13.70;;;10.87;;
1054;SDS011;516;51.482;7.120;2023-05-01T00:39:40;13.23;;;11.90;;
1054;SDS011;516;51.482;7.120;2023-05-01T00:45:22;12.97;;;11.67;;
1054;SDS011;516;51.482;7.120;2023-05-01T00:51:11;13.83;;;10.60;;
1054;SDS011;516;51.482;7.120;2023-05-01T00:57:01;12.93;;;11.70;;
1054;SDS011;516;51.482;7.120;2023-05-01T01:02:49;13.73;;;12.30;;
1054;SDS011;516;51.482;7.120;2023-05-01T01:08:42;12.27;;;11.27;;
1054;SDS011;516;51.482;7.120;2023-05-01T01:21:07;13.27;;;11.07;;
1054;SDS011;516;51.482;7.120;2023-05-01T01:52:58;21.33;;;14.10;;
1054;SDS011;516;51.482;7.120;2023-05-01T01:58:47;22.23;;;14.00;;
1054;SDS011;516;51.482;7.120;2023-05-01T02:04:35;53.53;;;29.30;;
1054;SDS011;516;51.482;7.120;2023-05-01T02:10:24;41.17;;;23.73;;
1054;SDS011;516;51.482;7.120;2023-05-01T02:16:14;36.53;;;24.60;;
1054;SDS011;516;51.482;7.120;2023-05-01T02:22:02;22.03;;;16.97;;
1054;SDS011;516;51.482;7.120;2023-05-01T02:28:06;17.73;;;15.43;;
1054;SDS011;516;51.482;7.120;2023-05-01T02:33:58;14.63;;;13.30;;
1054;SDS011;516;51.482;7.120;2023-05-01T02:39:46;12.97;;;11.77;;
1054;SDS011;516;51.482;7.120;2023-05-01T02:45:36;14.70;;;12.80;;
1054;SDS011;516;51.482;7.120;2023-05-01T02:50:56;13.10;;;11.90;;
1054;SDS011;516;51.482;7.120;2023-05-01T02:56:47;13.77;;;12.30;;
1054;SDS011;516;51.482;7.120;2023-05-01T03:02:35;14.00;;;12.17;;
1054;SDS011;516;51.482;7.120;2023-05-01T03:08:23;12.47;;;11.57;;
1054;SDS011;516;51.482;7.120;2023-05-01T03:14:11;13.13;;;11.17;;
1054;SDS011;516;51.482;7.120;2023-05-01T03:19:59;14.63;;;13.37;;
1054;SDS011;516;51.482;7.120;2023-05-01T03:25:46;12.70;;;11.60;;
1054;SDS011;516;51.482;7.120;2023-05-01T03:31:34;13.67;;;12.23;;
1054;SDS011;516;51.482;7.120;2023-05-01T03:37:23;13.73;;;11.97;;
1054;SDS011;516;51.482;7.120;2023-05-01T03:43:11;12.40;;;11.13;;
1054;SDS011;516;51.482;7.120;2023-05-01T03:58:50;12.93;;;11.30;;
1054;SDS011;516;51.482;7.120;2023-05-01T04:04:39;12.07;;;11.00;;
1054;SDS011;516;51.482;7.120;2023-05-01T04:10:27;11.30;;;10.30;;
1054;SDS011;516;51.482;7.120;2023-05-01T04:16:14;13.47;;;11.40;;
1054;SDS011;516;51.482;7.120;2023-05-01T04:22:02;16.83;;;12.20;;
1054;SDS011;516;51.482;7.120;2023-05-01T04:27:52;11.60;;;10.60;;
1054;SDS011;516;51.482;7.120;2023-05-01T04:33:39;12.67;;;10.90;;
1054;SDS011;516;51.482;7.120;2023-05-01T04:39:27;12.47;;;10.33;;
1054;SDS011;516;51.482;7.120;2023-05-01T04:45:15;13.40;;;12.00;;
1054;SDS011;516;51.482;7.120;2023-05-01T04:50:57;12.53;;;11.17;;
1054;SDS011;516;51.482;7.120;2023-05-01T04:56:45;14.60;;;11.97;;
1054;SDS011;516;51.482;7.120;2023-05-01T05:02:33;12.20;;;11.03;;
1054;SDS011;516;51.482;7.120;2023-05-01T05:08:21;12.53;;;11.30;;
1054;SDS011;516;51.482;7.120;2023-05-01T05:14:09;12.13;;;11.03;;
1054;SDS011;516;51.482;7.120;2023-05-01T05:19:57;14.40;;;12.90;;
1054;SDS011;516;51.482;7.120;2023-05-01T05:25:45;12.40;;;11.40;;
1054;SDS011;516;51.482;7.120;2023-05-01T05:31:33;13.97;;;12.37;;
1054;SDS011;516;51.482;7.120;2023-05-01T05:37:21;13.63;;;12.43;;
1054;SDS011;516;51.482;7.120;2023-05-01T05:43:09;13.83;;;12.33;;
1054;SDS011;516;51.482;7.120;2023-05-01T05:58:47;14.00;;;13.00;;
1054;SDS011;516;51.482;7.120;2023-05-01T06:04:35;13.40;;;12.40;;
1054;SDS011;516;51.482;7.120;2023-05-01T06:10:23;15.17;;;13.97;;
1054;SDS011;516;51.482;7.120;2023-05-01T06:16:11;14.83;;;13.83;;
1054;SDS011;516;51.482;7.120;2023-05-01T06:21:40;16.03;;;14.67;;
1054;SDS011;516;51.482;7.120;2023-05-01T06:27:28;15.40;;;14.37;;
1054;SDS011;516;51.482;7.120;2023-05-01T06:33:16;16.40;;;15.20;;
1054;SDS011;516;51.482;7.120;2023-05-01T06:39:04;15.93;;;14.77;;
1054;SDS011;516;51.482;7.120;2023-05-01T06:44:52;15.80;;;14.47;;
1054;SDS011;516;51.482;7.120;2023-05-01T06:50:40;14.80;;;13.77;;
1054;SDS011;516;51.482;7.120;2023-05-01T06:56:28;14.30;;;13.40;;
1054;SDS011;516;51.482;7.120;2023-05-01T07:02:18;15.13;;;13.80;;
1054;SDS011;516;51.482;7.120;2023-05-01T07:08:07;15.90;;;14.53;;
1054;SDS011;516;51.482;7.120;2023-05-01T07:13:55;14.40;;;13.33;;
1054;SDS011;516;51.482;7.120;2023-05-01T07:19:44;14.33;;;12.83;;
1054;SDS011;516;51.482;7.120;2023-05-01T07:25:31;14.43;;;13.50;;
1054;SDS011;516;51.482;7.120;2023-05-01T07:31:19;14.33;;;13.33;;
1054;SDS011;516;51.482;7.120;2023-05-01T07:37:08;13.97;;;13.07;;
1054;SDS011;516;51.482;7.120;2023-05-01T07:42:55;13.10;;;12.20;;
1054;SDS011;516;51.482;7.120;2023-05-01T07:59:09;13.00;;;12.20;;
1054;SDS011;516;51.482;7.120;2023-05-01T08:04:56;12.13;;;11.43;;
1054;SDS011;516;51.482;7.120;2023-05-01T08:10:43;12.97;;;12.27;;
1054;SDS011;516;51.482;7.120;2023-05-01T08:16:32;13.23;;;12.63;;
1054;SDS011;516;51.482;7.120;2023-05-01T08:22:19;12.50;;;11.90;;
1054;SDS011;516;51.482;7.120;2023-05-01T08:28:08;12.80;;;12.20;;
1054;SDS011;516;51.482;7.120;2023-05-01T08:33:56;13.03;;;12.33;;
1054;SDS011;516;51.482;7.120;2023-05-01T08:39:44;12.33;;;11.73;;
1054;SDS011;516;51.482;7.120;2023-05-01T08:45:32;12.57;;;11.77;;
1054;SDS011;516;51.482;7.120;2023-05-01T08:50:59;12.73;;;12.13;;
1054;SDS011;516;51.482;7.120;2023-05-01T08:56:50;12.70;;;12.00;;
1054;SDS011;516;51.482;7.120;2023-05-01T09:02:39;12.40;;;11.80;;
1054;SDS011;516;51.482;7.120;2023-05-01T09:08:28;13.20;;;12.47;;
1054;SDS011;516;51.482;7.120;2023-05-01T09:14:16;12.60;;;12.00;;
1054;SDS011;516;51.482;7.120;2023-05-01T09:20:04;12.70;;;12.20;;
1054;SDS011;516;51.482;7.120;2023-05-01T09:25:53;12.80;;;12.00;;
1054;SDS011;516;51.482;7.120;2023-05-01T09:31:42;13.10;;;12.40;;
1054;SDS011;516;51.482;7.120;2023-05-01T09:37:31;13.43;;;12.63;;
1054;SDS011;516;51.482;7.120;2023-05-01T09:43:23;12.40;;;11.90;;
1054;SDS011;516;51.482;7.120;2023-05-01T09:58:51;12.33;;;11.70;;
1054;SDS011;516;51.482;7.120;2023-05-01T10:04:40;13.13;;;12.33;;
1054;SDS011;516;51.482;7.120;2023-05-01T10:10:28;13.67;;;12.97;;
1054;SDS011;516;51.482;7.120;2023-05-01T10:16:35;13.43;;;12.73;;
1054;SDS011;516;51.482;7.120;2023-05-01T10:23:01;13.33;;;12.60;;
1054;SDS011;516;51.482;7.120;2023-05-01T10:28:52;13.07;;;12.43;;
1054;SDS011;516;51.482;7.120;2023-05-01T10:34:50;12.07;;;11.37;;
1054;SDS011;516;51.482;7.120;2023-05-01T10:40:47;12.13;;;11.63;;
1054;SDS011;516;51.482;7.120;2023-05-01T10:46:35;12.67;;;12.03;;
1054;SDS011;516;51.482;7.120;2023-05-01T10:55:47;12.20;;;11.70;;
1054;SDS011;516;51.482;7.120;2023-05-01T11:01:36;11.90;;;11.30;;
1054;SDS011;516;51.482;7.120;2023-05-01T11:07:24;12.73;;;11.83;;
1054;SDS011;516;51.482;7.120;2023-05-01T11:13:13;12.57;;;11.87;;
1054;SDS011;516;51.482;7.120;2023-05-01T11:19:01;12.47;;;11.77;;
1054;SDS011;516;51.482;7.120;2023-05-01T11:24:49;13.07;;;12.47;;
1054;SDS011;516;51.482;7.120;2023-05-01T11:30:37;13.60;;;13.00;;
1054;SDS011;516;51.482;7.120;2023-05-01T11:36:26;13.53;;;12.83;;
1054;SDS011;516;51.482;7.120;2023-05-01T11:42:14;14.50;;;13.57;;
1054;SDS011;516;51.482;7.120;2023-05-01T11:48:02;14.07;;;13.40;;
1054;SDS011;516;51.482;7.120;2023-05-01T11:53:56;17.97;;;16.70;;
1054;SDS011;516;51.482;7.120;2023-05-01T12:00:29;14.80;;;14.00;;
1054;SDS011;516;51.482;7.120;2023-05-01T12:06:41;13.67;;;13.00;;
1054;SDS011;516;51.482;7.120;2023-05-01T12:12:30;13.50;;;12.90;;
1054;SDS011;516;51.482;7.120;2023-05-01T12:18:19;13.73;;;13.00;;
1054;SDS011;516;51.482;7.120;2023-05-01T12:24:10;13.33;;;12.43;;
1054;SDS011;516;51.482;7.120;2023-05-01T12:30:03;13.40;;;12.60;;
1054;SDS011;516;51.482;7.120;2023-05-01T12:35:51;12.43;;;11.77;;
1054;SDS011;516;51.482;7.120;2023-05-01T12:41:45;13.97;;;13.27;;
1054;SDS011;516;51.482;7.120;2023-05-01T12:47:35;13.53;;;12.93;;
1054;SDS011;516;51.482;7.120;2023-05-01T12:56:45;13.43;;;12.70;;
1054;SDS011;516;51.482;7.120;2023-05-01T13:02:33;13.00;;;12.30;;
1054;SDS011;516;51.482;7.120;2023-05-01T13:08:29;12.53;;;12.03;;
1054;SDS011;516;51.482;7.120;2023-05-01T13:14:18;12.80;;;12.20;;
1054;SDS011;516;51.482;7.120;2023-05-01T13:20:06;13.87;;;13.07;;
1054;SDS011;516;51.482;7.120;2023-05-01T13:25:57;13.30;;;12.60;;
1054;SDS011;516;51.482;7.120;2023-05-01T13:31:45;16.07;;;15.27;;
1054;SDS011;516;51.482;7.120;2023-05-01T13:37:34;13.20;;;12.60;;
1054;SDS011;516;51.482;7.120;2023-05-01T13:43:22;12.90;;;12.30;;
1054;SDS011;516;51.482;7.120;2023-05-01T13:49:10;12.83;;;12.23;;
1054;SDS011;516;51.482;7.120;2023-05-01T13:54:45;13.17;;;12.50;;
1054;SDS011;516;51.482;7.120;2023-05-01T14:00:34;13.40;;;12.80;;
1054;SDS011;516;51.482;7.120;2023-05-01T14:06:22;14.00;;;13.10;;
1054;SDS011;516;51.482;7.120;2023-05-01T14:12:13;12.80;;;12.20;;
1054;SDS011;516;51.482;7.120;2023-05-01T14:18:06;12.60;;;12.00;;
1054;SDS011;516;51.482;7.120;2023-05-01T14:23:54;13.40;;;12.80;;
1054;SDS011;516;51.482;7.120;2023-05-01T14:29:43;16.27;;;15.37;;
1054;SDS011;516;51.482;7.120;2023-05-01T14:35:31;14.10;;;13.50;;
1054;SDS011;516;51.482;7.120;2023-05-01T14:41:19;13.20;;;12.07;;
1054;SDS011;516;51.482;7.120;2023-05-01T14:47:07;12.30;;;11.70;;
1054;SDS011;516;51.482;7.120;2023-05-01T15:02:36;11.97;;;11.17;;
1054;SDS011;516;51.482;7.120;2023-05-01T15:08:25;14.40;;;7.22;;
1054;SDS011;516;51.482;7.120;2023-05-01T15:14:13;11.10;;;7.50;;
1054;SDS011;516;51.482;7.120;2023-05-01T15:20:00;9.80;;;7.40;;
1054;SDS011;516;51.482;7.120;2023-05-01T15:25:48;10.83;;;8.20;;
1054;SDS011;516;51.482;7.120;2023-05-01T15:31:37;13.77;;;9.97;;
1054;SDS011;516;51.482;7.120;2023-05-01T15:37:26;10.17;;;9.20;;
1054;SDS011;516;51.482;7.120;2023-05-01T15:43:14;9.20;;;7.37;;
1054;SDS011;516;51.482;7.120;2023-05-01T15:49:04;10.93;;;9.93;;
1054;SDS011;516;51.482;7.120;2023-05-01T15:54:45;12.20;;;9.40;;
1054;SDS011;516;51.482;7.120;2023-05-01T16:00:33;9.70;;;8.70;;
1054;SDS011;516;51.482;7.120;2023-05-01T16:06:24;11.77;;;10.13;;
1054;SDS011;516;51.482;7.120;2023-05-01T16:12:13;10.43;;;9.43;;
1054;SDS011;516;51.482;7.120;2023-05-01T16:18:01;15.67;;;13.90;;
1054;SDS011;516;51.482;7.120;2023-05-01T16:23:50;10.07;;;9.00;;
1054;SDS011;516;51.482;7.120;2023-05-01T16:29:40;16.53;;;15.23;;
1054;SDS011;516;51.482;7.120;2023-05-01T16:35:28;12.93;;;11.83;;
1054;SDS011;516;51.482;7.120;2023-05-01T16:41:16;8.10;;;7.50;;
1054;SDS011;516;51.482;7.120;2023-05-01T16:47:04;9.77;;;8.80;;
1054;SDS011;516;51.482;7.120;2023-05-01T17:02:37;8.63;;;7.93;;
1054;SDS011;516;51.482;7.120;2023-05-01T17:08:25;11.50;;;10.50;;
1054;SDS011;516;51.482;7.120;2023-05-01T17:14:14;10.30;;;9.50;;
1054;SDS011;516;51.482;7.120;2023-05-01T17:20:02;9.90;;;9.10;;
1054;SDS011;516;51.482;7.120;2023-05-01T17:25:51;8.83;;;8.13;;
1054;SDS011;516;51.482;7.120;2023-05-01T17:31:39;11.53;;;10.70;;
1054;SDS011;516;51.482;7.120;2023-05-01T17:37:27;11.07;;;10.27;;
1054;SDS011;516;51.482;7.120;2023-05-01T17:43:15;9.80;;;9.07;;
1054;SDS011;516;51.482;7.120;2023-05-01T17:49:02;9.33;;;8.53;;
1054;SDS011;516;51.482;7.120;2023-05-01T17:54:46;9.93;;;9.07;;
1054;SDS011;516;51.482;7.120;2023-05-01T18:00:34;11.00;;;10.20;;
1054;SDS011;516;51.482;7.120;2023-05-01T18:06:22;12.63;;;10.60;;
1054;SDS011;516;51.482;7.120;2023-05-01T18:12:10;10.57;;;9.57;;
1054;SDS011;516;51.482;7.120;2023-05-01T18:17:58;12.13;;;10.40;;
1054;SDS011;516;51.482;7.120;2023-05-01T18:23:27;11.13;;;10.23;;
1054;SDS011;516;51.482;7.120;2023-05-01T18:29:15;10.53;;;9.53;;
1054;SDS011;516;51.482;7.120;2023-05-01T18:35:03;9.70;;;8.67;;
1054;SDS011;516;51.482;7.120;2023-05-01T18:40:51;10.37;;;9.50;;
1054;SDS011;516;51.482;7.120;2023-05-01T18:46:39;11.60;;;10.60;;
1054;SDS011;516;51.482;7.120;2023-05-01T18:59:12;11.30;;;10.20;;
1054;SDS011;516;51.482;7.120;2023-05-01T19:04:59;13.53;;;12.23;;
1054;SDS011;516;51.482;7.120;2023-05-01T19:10:47;11.47;;;10.37;;
1054;SDS011;516;51.482;7.120;2023-05-01T19:16:35;13.40;;;12.07;;
1054;SDS011;516;51.482;7.120;2023-05-01T19:22:23;13.80;;;12.40;;
1054;SDS011;516;51.482;7.120;2023-05-01T19:28:11;14.47;;;13.13;;
1054;SDS011;516;51.482;7.120;2023-05-01T19:33:59;18.17;;;15.50;;
1054;SDS011;516;51.482;7.120;2023-05-01T19:39:47;15.70;;;14.20;;
1054;SDS011;516;51.482;7.120;2023-05-01T19:45:35;26.17;;;13.50;;
1054;SDS011;516;51.482;7.120;2023-05-01T19:51:22;14.17;;;12.67;;
1054;SDS011;516;51.482;7.120;2023-05-01T19:57:10;15.23;;;13.50;;
1054;SDS011;516;51.482;7.120;2023-05-01T20:02:59;14.37;;;13.07;;
1054;SDS011;516;51.482;7.120;2023-05-01T20:08:46;15.33;;;13.73;;
1054;SDS011;516;51.482;7.120;2023-05-01T20:14:34;12.90;;;11.60;;
1054;SDS011;516;51.482;7.120;2023-05-01T20:20:22;18.03;;;13.20;;
1054;SDS011;516;51.482;7.120;2023-05-01T20:26:10;16.07;;;14.27;;
1054;SDS011;516;51.482;7.120;2023-05-01T20:31:58;21.90;;;13.30;;
1054;SDS011;516;51.482;7.120;2023-05-01T20:37:46;17.77;;;15.20;;
1054;SDS011;516;51.482;7.120;2023-05-01T20:43:34;14.50;;;12.80;;
1054;SDS011;516;51.482;7.120;2023-05-01T20:49:22;16.43;;;14.73;;
1054;SDS011;516;51.482;7.120;2023-05-01T20:54:47;20.90;;;18.57;;
1054;SDS011;516;51.482;7.120;2023-05-01T21:00:35;21.00;;;18.90;;
1054;SDS011;516;51.482;7.120;2023-05-01T21:06:23;20.90;;;18.67;;
1054;SDS011;516;51.482;7.120;2023-05-01T21:12:12;27.93;;;21.37;;
1054;SDS011;516;51.482;7.120;2023-05-01T21:18:00;21.30;;;19.20;;
1054;SDS011;516;51.482;7.120;2023-05-01T21:23:48;22.80;;;18.37;;
1054;SDS011;516;51.482;7.120;2023-05-01T21:29:38;19.73;;;17.53;;
1054;SDS011;516;51.482;7.120;2023-05-01T21:35:26;19.00;;;15.63;;
1054;SDS011;516;51.482;7.120;2023-05-01T21:41:15;19.13;;;17.13;;
1054;SDS011;516;51.482;7.120;2023-05-01T21:47:03;18.67;;;16.50;;
1054;SDS011;516;51.482;7.120;2023-05-01T22:02:41;19.13;;;17.20;;
1054;SDS011;516;51.482;7.120;2023-05-01T22:08:31;20.67;;;18.47;;
1054;SDS011;516;51.482;7.120;2023-05-01T22:14:19;18.63;;;16.60;;
1054;SDS011;516;51.482;7.120;2023-05-01T22:20:08;20.10;;;17.97;;
1054;SDS011;516;51.482;7.120;2023-05-01T22:25:56;23.23;;;20.03;;
1054;SDS011;516;51.482;7.120;2023-05-01T22:31:47;24.60;;;17.97;;
1054;SDS011;516;51.482;7.120;2023-05-01T22:37:35;19.83;;;17.70;;
1054;SDS011;516;51.482;7.120;2023-05-01T22:43:23;24.00;;;18.77;;
1054;SDS011;516;51.482;7.120;2023-05-01T22:49:11;20.17;;;18.00;;
1054;SDS011;516;51.482;7.120;2023-05-01T22:54:47;23.87;;;19.07;;
1054;SDS011;516;51.482;7.120;2023-05-01T23:00:37;23.60;;;20.10;;
1054;SDS011;516;51.482;7.120;2023-05-01T23:06:25;22.37;;;19.60;;
1054;SDS011;516;51.482;7.120;2023-05-01T23:12:15;24.67;;;20.70;;
1054;SDS011;516;51.482;7.120;2023-05-01T23:18:05;25.43;;;20.07;;
1054;SDS011;516;51.482;7.120;2023-05-01T23:23:53;24.97;;;20.43;;
1054;SDS011;516;51.482;7.120;2023-05-01T23:29:42;28.67;;;23.00;;
1054;SDS011;516;51.482;7.120;2023-05-01T23:36:10;26.83;;;21.27;;
1054;SDS011;516;51.482;7.120;2023-05-01T23:41:58;24.97;;;20.60;;
1054;SDS011;516;51.482;7.120;2023-05-01T23:47:47;31.53;;;24.10;;
1054;SDS011;516;51.482;7.120;2023-05-01T23:56:57;32.50;;;26.73;;
